createdAt,value
2023-04-11T00:01:14.032Z,74.43
2023-04-11T00:06:15.772Z,68.75
2023-04-11T00:11:17.493Z,66.98
2023-04-11T00:16:19.687Z,65.38
2023-04-11T00:21:21.382Z,64.33
2023-04-11T00:26:23.067Z,65.28
2023-04-11T00:31:24.780Z,64.24
2023-04-11T00:36:27.193Z,63.86
2023-04-11T00:41:29.054Z,63.98
2023-04-11T00:46:32.113Z,62.99
2023-04-11T00:51:33.876Z,62.68
2023-04-11T00:56:35.729Z,61.91
2023-04-11T01:01:38.425Z,61.59
2023-04-11T01:06:40.255Z,61.30
2023-04-11T01:11:42.668Z,60.94
2023-04-11T01:16:47.162Z,60.68
2023-04-11T01:21:50.648Z,60.40
2023-04-11T01:26:52.792Z,60.89
2023-04-11T01:31:55.060Z,60.75
2023-04-11T01:36:56.852Z,60.60
2023-04-11T01:42:01.138Z,60.77
2023-04-11T01:47:03.325Z,60.46
2023-04-11T01:52:04.946Z,60.74
2023-04-11T01:57:07.043Z,60.38
2023-04-11T02:02:08.853Z,60.28
2023-04-11T02:07:10.539Z,59.96
2023-04-11T02:12:12.163Z,60.08
2023-04-11T02:17:14.230Z,60.36
2023-04-11T02:22:16.273Z,59.41
2023-04-11T02:27:17.887Z,59.18
2023-04-11T02:32:19.701Z,59.27
2023-04-11T02:37:21.870Z,58.27
2023-04-11T02:42:23.551Z,58.31
2023-04-11T02:47:25.397Z,57.95
2023-04-11T02:52:28.710Z,57.17
2023-04-11T02:57:30.451Z,56.98
2023-04-11T03:02:33.691Z,56.71
2023-04-11T03:07:38.573Z,56.92
2023-04-11T03:12:40.656Z,57.86
2023-04-11T03:17:45.890Z,57.70
2023-04-11T03:22:49.764Z,58.04
2023-04-11T03:27:53.079Z,58.56
2023-04-11T03:32:55.192Z,58.59
2023-04-11T03:37:56.897Z,59.44
2023-04-11T03:43:04.419Z,59.22
2023-04-11T03:48:08.605Z,60.61
2023-04-11T03:53:22.980Z,61.47
2023-04-11T03:58:29.823Z,64.87
2023-04-11T04:03:31.676Z,62.18
2023-04-11T04:08:34.929Z,61.60
2023-04-11T04:13:36.977Z,62.21
2023-04-11T04:18:50.714Z,63.04
2023-04-11T04:23:54.405Z,62.92
2023-04-11T04:29:10.239Z,65.02
2023-04-11T04:34:29.300Z,66.81
2023-04-11T04:39:34.170Z,68.21
2023-04-11T04:44:36.943Z,69.89
2023-04-11T04:49:46.652Z,72.54
2023-04-11T04:54:50.555Z,75.55
2023-04-11T04:59:52.214Z,77.63
2023-04-11T05:04:57.011Z,78.19
2023-04-11T05:09:59.748Z,79.91
2023-04-11T05:15:03.576Z,79.97
2023-04-11T05:20:09.064Z,81.61
2023-04-11T05:25:12.072Z,82.43
2023-04-11T05:30:16.825Z,82.25
2023-04-11T05:35:20.091Z,82.07
2023-04-11T05:40:27.494Z,82.15
2023-04-11T05:45:29.213Z,83.50
2023-04-11T05:50:31.032Z,85.00
2023-04-11T05:55:35.042Z,85.30
2023-04-11T06:00:38.346Z,85.29
2023-04-11T06:05:40.104Z,84.20
2023-04-11T06:10:42.117Z,84.13
2023-04-11T06:15:43.956Z,85.20
2023-04-11T06:20:47.128Z,84.45
2023-04-11T06:25:48.821Z,85.48
2023-04-11T06:30:50.616Z,87.16
2023-04-11T06:35:52.340Z,86.96
2023-04-11T06:40:56.336Z,89.27
2023-04-11T06:45:58.042Z,88.20
2023-04-11T06:50:59.703Z,88.91
2023-04-11T06:56:01.503Z,93.24
2023-04-11T07:01:03.183Z,97.38
2023-04-11T07:06:04.948Z,100.00
2023-04-11T07:11:06.965Z,100.00
2023-04-11T07:16:09.076Z,100.00
2023-04-11T07:21:14.749Z,100.00
2023-04-11T07:26:17.026Z,100.00
2023-04-11T07:31:21.570Z,100.00
2023-04-11T07:36:23.340Z,100.00
2023-04-11T07:41:25.020Z,100.00
2023-04-11T07:46:26.691Z,100.00
2023-04-11T07:51:28.399Z,100.00
2023-04-11T07:56:30.037Z,100.00
2023-04-11T08:01:31.708Z,100.00
2023-04-11T08:06:33.533Z,100.00
2023-04-11T08:11:35.323Z,100.00
2023-04-11T08:16:37.018Z,100.00
2023-04-11T08:21:38.703Z,99.53
2023-04-11T08:26:40.357Z,99.54
2023-04-11T08:31:45.238Z,98.21
2023-04-11T08:36:47.085Z,97.21
2023-04-11T08:41:48.773Z,97.04
2023-04-11T08:46:50.369Z,95.54
2023-04-11T08:51:53.832Z,94.16
2023-04-11T08:56:55.482Z,91.24
2023-04-11T09:02:09.324Z,88.97
2023-04-11T09:07:11.991Z,88.88
2023-04-11T09:12:13.713Z,89.34
2023-04-11T09:17:17.011Z,89.87
2023-04-11T09:22:18.721Z,89.11
2023-04-11T09:27:24.448Z,88.39
2023-04-11T09:32:30.785Z,88.32
2023-04-11T09:37:49.384Z,88.01
2023-04-11T09:43:04.289Z,86.94
2023-04-11T09:48:06.232Z,82.28
2023-04-11T09:53:09.033Z,80.65
2023-04-11T09:58:11.282Z,78.14
2023-04-11T10:03:12.928Z,76.98
2023-04-11T10:08:22.545Z,77.80
2023-04-11T10:13:43.521Z,73.77
2023-04-11T10:18:54.136Z,69.97
2023-04-11T10:24:23.329Z,66.02
2023-04-11T10:29:30.641Z,64.06
2023-04-11T10:34:32.334Z,63.61
2023-04-11T10:39:52.103Z,62.20
2023-04-11T10:45:18.516Z,62.72
2023-04-11T10:50:26.339Z,65.50
2023-04-11T10:55:29.758Z,73.04
2023-04-11T11:01:21.245Z,65.65
2023-04-11T11:06:38.101Z,67.38
2023-04-11T11:11:44.761Z,70.08
2023-04-11T11:16:46.666Z,71.71
2023-04-11T11:21:48.301Z,70.57
2023-04-11T11:26:50.525Z,61.09
2023-04-11T11:31:53.447Z,60.06
2023-04-11T11:36:56.588Z,58.60
2023-04-11T11:41:58.516Z,69.58
2023-04-11T11:47:03.760Z,81.61
2023-04-11T11:52:05.415Z,88.35
2023-04-11T11:57:07.062Z,88.07
2023-04-11T12:02:08.767Z,88.76
2023-04-11T12:07:11.187Z,86.00
2023-04-11T12:12:15.997Z,81.44
2023-04-11T12:17:17.605Z,79.04
2023-04-11T12:22:19.242Z,71.57
2023-04-11T12:27:21.023Z,66.77
2023-04-11T12:32:23.967Z,71.47
2023-04-11T12:37:25.733Z,69.20
2023-04-11T12:42:27.691Z,65.44
2023-04-11T12:47:29.345Z,66.80
2023-04-11T12:52:31.054Z,65.20
2023-04-11T12:57:32.845Z,66.05
2023-04-11T13:02:42.128Z,61.22
2023-04-11T13:07:46.309Z,59.51
2023-04-11T13:12:48.598Z,60.97
2023-04-11T13:17:50.750Z,61.96
2023-04-11T13:22:52.383Z,64.50
2023-04-11T13:27:53.993Z,64.18
2023-04-11T13:32:55.769Z,64.02
2023-04-11T13:37:57.789Z,64.38
2023-04-11T13:42:59.417Z,65.01
2023-04-11T13:48:01.128Z,65.31
2023-04-11T13:53:02.873Z,67.08
2023-04-11T13:58:04.478Z,68.34
2023-04-11T14:03:06.474Z,65.29
2023-04-11T14:08:08.228Z,65.24
2023-04-11T14:13:11.594Z,63.06
2023-04-11T14:18:13.503Z,61.37
2023-04-11T14:23:16.595Z,61.90
2023-04-11T14:28:18.480Z,61.72
2023-04-11T14:33:20.097Z,61.71
2023-04-11T14:38:21.700Z,61.31
2023-04-11T14:43:23.326Z,60.34
2023-04-11T14:48:28.870Z,61.32
2023-04-11T14:53:30.545Z,62.45
2023-04-11T14:58:32.760Z,62.39
2023-04-11T15:03:34.964Z,64.13
2023-04-11T15:08:37.127Z,62.63
2023-04-11T15:13:39.003Z,69.63
2023-04-11T15:18:40.820Z,69.82
2023-04-11T15:23:43.345Z,72.08
2023-04-11T15:28:46.143Z,73.28
2023-04-11T15:33:47.985Z,71.70
2023-04-11T15:38:49.676Z,70.58
2023-04-11T15:43:51.325Z,68.70
2023-04-11T15:48:53.010Z,68.55
2023-04-11T15:53:55.049Z,73.15
2023-04-11T15:58:56.909Z,74.85
2023-04-11T16:03:59.129Z,76.44
2023-04-11T16:09:00.984Z,78.72
2023-04-11T16:14:02.732Z,73.56
2023-04-11T16:19:06.542Z,63.22
2023-04-11T16:24:08.203Z,60.88
2023-04-11T16:29:09.876Z,60.25
2023-04-11T16:34:11.837Z,61.78
2023-04-11T16:39:13.613Z,64.71
2023-04-11T16:44:16.170Z,66.95
2023-04-11T16:49:18.317Z,68.60
2023-04-11T16:54:19.948Z,70.48
2023-04-11T16:59:22.554Z,70.10
2023-04-11T17:04:24.352Z,70.58
2023-04-11T17:09:26.217Z,71.67
2023-04-11T17:14:28.079Z,70.84
2023-04-11T17:19:29.731Z,72.15
2023-04-11T17:24:31.707Z,74.04
2023-04-11T17:29:33.323Z,72.64
2023-04-11T17:34:35.218Z,75.49
2023-04-11T17:39:36.848Z,78.53
2023-04-11T17:44:38.570Z,84.12
2023-04-11T17:49:40.504Z,85.72
2023-04-11T17:54:42.184Z,82.64
2023-04-11T17:59:45.887Z,78.80
2023-04-11T18:04:49.225Z,78.31
2023-04-11T18:09:51.489Z,76.45
2023-04-11T18:14:54.276Z,73.95
2023-04-11T18:19:56.828Z,74.01
2023-04-11T18:25:02.054Z,73.87
2023-04-11T18:30:06.063Z,75.51
2023-04-11T18:35:08.185Z,76.00
2023-04-11T18:40:12.614Z,74.99
2023-04-11T18:45:15.650Z,72.67
2023-04-11T18:50:18.562Z,72.65
2023-04-11T18:55:20.820Z,78.54
2023-04-11T19:00:23.934Z,80.51
2023-04-11T19:05:25.913Z,81.92
2023-04-11T19:10:27.594Z,84.94
2023-04-11T19:15:29.380Z,84.54
2023-04-11T19:20:30.977Z,85.06
2023-04-11T19:25:32.579Z,84.45
2023-04-11T19:30:35.158Z,85.51
2023-04-11T19:35:36.900Z,86.53
2023-04-11T19:40:38.638Z,86.05
2023-04-11T19:45:40.430Z,88.61
2023-04-11T19:50:42.105Z,88.69
2023-04-11T19:55:45.538Z,90.45
2023-04-11T20:00:47.929Z,90.99
2023-04-11T20:05:49.857Z,92.89
2023-04-11T20:10:52.045Z,93.86
2023-04-11T20:15:53.748Z,94.58
2023-04-11T20:20:55.400Z,93.68
2023-04-11T20:25:57.037Z,93.75
2023-04-11T20:30:59.305Z,94.67
2023-04-11T20:36:02.804Z,94.59
2023-04-11T20:41:06.329Z,95.25
2023-04-11T20:46:08.655Z,95.76
2023-04-11T20:51:11.344Z,95.46
2023-04-11T20:56:14.800Z,94.13
2023-04-11T21:01:16.610Z,93.94
2023-04-11T21:06:18.272Z,95.34
2023-04-11T21:11:19.894Z,96.07
2023-04-11T21:16:21.816Z,96.45
2023-04-11T21:21:23.734Z,96.09
2023-04-11T21:26:25.931Z,95.99
2023-04-11T21:31:27.561Z,96.25
2023-04-11T21:36:29.226Z,95.30
2023-04-11T21:41:30.851Z,94.05
2023-04-11T21:46:32.542Z,93.34
2023-04-11T21:51:34.188Z,93.73
2023-04-11T21:56:35.839Z,93.48
2023-04-11T22:01:37.620Z,95.07
2023-04-11T22:06:46.229Z,94.66
2023-04-11T22:11:47.934Z,95.20
2023-04-11T22:16:49.581Z,96.19
2023-04-11T22:21:55.848Z,96.08
2023-04-11T22:26:58.500Z,96.00
2023-04-11T22:32:03.790Z,95.38
2023-04-11T22:37:05.592Z,94.92
2023-04-11T22:42:07.383Z,95.31
2023-04-11T22:47:16.128Z,95.19
2023-04-11T22:52:24.310Z,95.46
2023-04-11T22:57:26.113Z,96.43
2023-04-11T23:02:31.765Z,96.57
2023-04-11T23:07:34.543Z,96.11
2023-04-11T23:12:36.467Z,96.42
2023-04-11T23:17:38.294Z,97.87
2023-04-11T23:22:42.360Z,98.12
2023-04-11T23:27:45.094Z,99.52
2023-04-11T23:32:47.253Z,100.00
2023-04-11T23:37:49.259Z,100.00
2023-04-11T23:42:51.629Z,100.00
2023-04-11T23:47:53.329Z,100.00
2023-04-11T23:52:54.975Z,100.00
2023-04-11T23:57:56.645Z,100.00
